sensor_id;sensor_type;location;lat;lon;timestamp;P1;durP1;ratioP1;P2;durP2;ratioP2
50350;SDS011;36250;48.740;22.174;2022-08-03T00:00:40;11.75;;;10.65;;
50350;SDS011;36250;48.740;22.174;2022-08-03T00:03:05;10.90;;;9.73;;
50350;SDS011;36250;48.740;22.174;2022-08-03T00:05:31;11.05;;;10.07;;
50350;SDS011;36250;48.740;22.174;2022-08-03T00:07:59;11.05;;;9.95;;
50350;SDS011;36250;48.740;22.174;2022-08-03T00:10:25;13.18;;;11.35;;
50350;SDS011;36250;48.740;22.174;2022-08-03T00:12:51;12.60;;;9.23;;
50350;SDS011;36250;48.740;22.174;2022-08-03T00:15:17;11.48;;;10.38;;
50350;SDS011;36250;48.740;22.174;2022-08-03T00:17:43;10.55;;;9.52;;
50350;SDS011;36250;48.740;22.174;2022-08-03T00:20:09;9.55;;;8.65;;
50350;SDS011;36250;48.740;22.174;2022-08-03T00:22:34;10.57;;;8.98;;
50350;SDS011;36250;48.740;22.174;2022-08-03T00:25:00;9.98;;;8.73;;
50350;SDS011;36250;48.740;22.174;2022-08-03T00:27:25;9.57;;;8.68;;
50350;SDS011;36250;48.740;22.174;2022-08-03T00:29:50;8.93;;;8.13;;
50350;SDS011;36250;48.740;22.174;2022-08-03T00:32:15;10.48;;;8.68;;
50350;SDS011;36250;48.740;22.174;2022-08-03T00:34:41;8.35;;;7.65;;
50350;SDS011;36250;48.740;22.174;2022-08-03T00:37:06;7.97;;;7.38;;
50350;SDS011;36250;48.740;22.174;2022-08-03T00:39:31;9.60;;;8.15;;
50350;SDS011;36250;48.740;22.174;2022-08-03T00:42:00;8.70;;;7.82;;
50350;SDS011;36250;48.740;22.174;2022-08-03T00:44:26;9.93;;;9.00;;
50350;SDS011;36250;48.740;22.174;2022-08-03T00:46:51;8.50;;;7.80;;
50350;SDS011;36250;48.740;22.174;2022-08-03T00:49:17;7.93;;;7.28;;
50350;SDS011;36250;48.740;22.174;2022-08-03T00:51:42;7.90;;;7.20;;
50350;SDS011;36250;48.740;22.174;2022-08-03T00:54:08;8.60;;;7.78;;
50350;SDS011;36250;48.740;22.174;2022-08-03T00:56:34;8.27;;;7.47;;
50350;SDS011;36250;48.740;22.174;2022-08-03T00:59:00;8.15;;;7.45;;
50350;SDS011;36250;48.740;22.174;2022-08-03T01:01:27;7.95;;;7.25;;
50350;SDS011;36250;48.740;22.174;2022-08-03T01:03:53;7.38;;;6.78;;
50350;SDS011;36250;48.740;22.174;2022-08-03T01:11:35;7.82;;;7.13;;
50350;SDS011;36250;48.740;22.174;2022-08-03T01:14:20;7.50;;;6.80;;
50350;SDS011;36250;48.740;22.174;2022-08-03T01:16:54;8.00;;;6.22;;
50350;SDS011;36250;48.740;22.174;2022-08-03T01:25:09;7.63;;;6.88;;
50350;SDS011;36250;48.740;22.174;2022-08-03T01:30:20;7.30;;;5.88;;
50350;SDS011;36250;48.740;22.174;2022-08-03T01:33:01;7.43;;;6.72;;
50350;SDS011;36250;48.740;22.174;2022-08-03T01:35:38;7.15;;;6.22;;
50350;SDS011;36250;48.740;22.174;2022-08-03T01:38:10;6.47;;;6.00;;
50350;SDS011;36250;48.740;22.174;2022-08-03T01:40:38;7.07;;;6.45;;
50350;SDS011;36250;48.740;22.174;2022-08-03T01:43:05;8.25;;;6.32;;
50350;SDS011;36250;48.740;22.174;2022-08-03T01:45:33;9.63;;;6.60;;
50350;SDS011;36250;48.740;22.174;2022-08-03T01:47:59;6.82;;;6.32;;
50350;SDS011;36250;48.740;22.174;2022-08-03T01:50:26;6.45;;;5.85;;
50350;SDS011;36250;48.740;22.174;2022-08-03T01:52:55;7.28;;;6.45;;
50350;SDS011;36250;48.740;22.174;2022-08-03T01:55:22;7.53;;;6.78;;
50350;SDS011;36250;48.740;22.174;2022-08-03T01:57:52;10.73;;;7.43;;
50350;SDS011;36250;48.740;22.174;2022-08-03T02:00:19;7.38;;;6.43;;
50350;SDS011;36250;48.740;22.174;2022-08-03T02:02:45;7.72;;;6.32;;
50350;SDS011;36250;48.740;22.174;2022-08-03T02:05:13;7.88;;;6.55;;
50350;SDS011;36250;48.740;22.174;2022-08-03T02:07:40;6.85;;;6.15;;
50350;SDS011;36250;48.740;22.174;2022-08-03T02:10:08;6.78;;;6.28;;
50350;SDS011;36250;48.740;22.174;2022-08-03T02:12:37;7.53;;;6.93;;
50350;SDS011;36250;48.740;22.174;2022-08-03T02:15:03;8.32;;;6.43;;
50350;SDS011;36250;48.740;22.174;2022-08-03T02:17:31;7.55;;;6.80;;
50350;SDS011;36250;48.740;22.174;2022-08-03T02:19:57;7.10;;;6.38;;
50350;SDS011;36250;48.740;22.174;2022-08-03T02:22:24;8.60;;;6.88;;
50350;SDS011;36250;48.740;22.174;2022-08-03T02:24:51;7.05;;;6.35;;
50350;SDS011;36250;48.740;22.174;2022-08-03T02:27:18;7.95;;;7.15;;
50350;SDS011;36250;48.740;22.174;2022-08-03T02:29:55;6.95;;;6.28;;
50350;SDS011;36250;48.740;22.174;2022-08-03T02:32:28;7.63;;;7.03;;
50350;SDS011;36250;48.740;22.174;2022-08-03T02:34:55;7.47;;;6.75;;
50350;SDS011;36250;48.740;22.174;2022-08-03T02:37:24;6.78;;;6.18;;
50350;SDS011;36250;48.740;22.174;2022-08-03T02:39:53;8.25;;;7.55;;
50350;SDS011;36250;48.740;22.174;2022-08-03T02:42:23;8.90;;;8.00;;
50350;SDS011;36250;48.740;22.174;2022-08-03T02:44:51;9.50;;;8.65;;
50350;SDS011;36250;48.740;22.174;2022-08-03T02:47:19;11.00;;;10.00;;
50350;SDS011;36250;48.740;22.174;2022-08-03T02:49:46;10.65;;;9.75;;
50350;SDS011;36250;48.740;22.174;2022-08-03T02:52:13;9.15;;;8.25;;
50350;SDS011;36250;48.740;22.174;2022-08-03T02:54:39;9.32;;;8.38;;
50350;SDS011;36250;48.740;22.174;2022-08-03T02:57:06;10.30;;;9.20;;
50350;SDS011;36250;48.740;22.174;2022-08-03T02:59:33;9.43;;;8.52;;
50350;SDS011;36250;48.740;22.174;2022-08-03T03:02:01;12.75;;;9.20;;
50350;SDS011;36250;48.740;22.174;2022-08-03T03:04:28;9.80;;;9.00;;
50350;SDS011;36250;48.740;22.174;2022-08-03T03:06:55;11.18;;;10.02;;
50350;SDS011;36250;48.740;22.174;2022-08-03T03:09:21;14.45;;;12.43;;
50350;SDS011;36250;48.740;22.174;2022-08-03T03:11:47;12.73;;;11.63;;
50350;SDS011;36250;48.740;22.174;2022-08-03T03:14:14;11.30;;;10.32;;
50350;SDS011;36250;48.740;22.174;2022-08-03T03:16:41;11.35;;;10.35;;
50350;SDS011;36250;48.740;22.174;2022-08-03T03:19:08;12.95;;;11.07;;
50350;SDS011;36250;48.740;22.174;2022-08-03T03:21:36;12.07;;;10.85;;
50350;SDS011;36250;48.740;22.174;2022-08-03T03:24:03;12.05;;;10.98;;
50350;SDS011;36250;48.740;22.174;2022-08-03T03:26:30;12.35;;;11.25;;
50350;SDS011;36250;48.740;22.174;2022-08-03T03:28:56;12.45;;;10.85;;
50350;SDS011;36250;48.740;22.174;2022-08-03T03:31:22;11.23;;;10.27;;
50350;SDS011;36250;48.740;22.174;2022-08-03T03:33:47;11.02;;;10.07;;
50350;SDS011;36250;48.740;22.174;2022-08-03T03:36:13;11.60;;;10.55;;
50350;SDS011;36250;48.740;22.174;2022-08-03T03:38:38;12.32;;;11.15;;
50350;SDS011;36250;48.740;22.174;2022-08-03T03:41:04;12.38;;;11.10;;
50350;SDS011;36250;48.740;22.174;2022-08-03T03:43:29;12.82;;;11.73;;
50350;SDS011;36250;48.740;22.174;2022-08-03T03:45:55;12.85;;;11.70;;
50350;SDS011;36250;48.740;22.174;2022-08-03T03:48:23;13.38;;;12.18;;
50350;SDS011;36250;48.740;22.174;2022-08-03T03:50:49;14.02;;;12.73;;
50350;SDS011;36250;48.740;22.174;2022-08-03T03:53:14;14.48;;;13.15;;
50350;SDS011;36250;48.740;22.174;2022-08-03T03:55:40;14.45;;;13.15;;
50350;SDS011;36250;48.740;22.174;2022-08-03T03:58:05;13.52;;;12.35;;
50350;SDS011;36250;48.740;22.174;2022-08-03T04:00:31;14.52;;;13.13;;
50350;SDS011;36250;48.740;22.174;2022-08-03T04:02:57;14.88;;;13.40;;
50350;SDS011;36250;48.740;22.174;2022-08-03T04:05:22;14.05;;;12.80;;
50350;SDS011;36250;48.740;22.174;2022-08-03T04:08:06;14.13;;;12.70;;
50350;SDS011;36250;48.740;22.174;2022-08-03T04:16:17;14.90;;;13.48;;
50350;SDS011;36250;48.740;22.174;2022-08-03T04:18:45;18.42;;;14.25;;
50350;SDS011;36250;48.740;22.174;2022-08-03T04:21:16;15.40;;;13.77;;
50350;SDS011;36250;48.740;22.174;2022-08-03T04:23:45;14.65;;;13.15;;
50350;SDS011;36250;48.740;22.174;2022-08-03T04:26:14;13.73;;;12.43;;
50350;SDS011;36250;48.740;22.174;2022-08-03T04:28:42;13.90;;;12.40;;
50350;SDS011;36250;48.740;22.174;2022-08-03T04:31:11;13.05;;;11.27;;
50350;SDS011;36250;48.740;22.174;2022-08-03T04:33:38;12.23;;;10.98;;
50350;SDS011;36250;48.740;22.174;2022-08-03T04:36:06;11.32;;;10.43;;
50350;SDS011;36250;48.740;22.174;2022-08-03T04:38:35;12.23;;;11.20;;
50350;SDS011;36250;48.740;22.174;2022-08-03T04:41:04;12.43;;;11.18;;
50350;SDS011;36250;48.740;22.174;2022-08-03T04:43:31;12.13;;;10.93;;
50350;SDS011;36250;48.740;22.174;2022-08-03T04:45:58;11.77;;;10.68;;
50350;SDS011;36250;48.740;22.174;2022-08-03T04:48:25;10.18;;;9.30;;
50350;SDS011;36250;48.740;22.174;2022-08-03T04:50:51;11.60;;;10.60;;
50350;SDS011;36250;48.740;22.174;2022-08-03T04:53:18;21.33;;;11.27;;
50350;SDS011;36250;48.740;22.174;2022-08-03T04:55:43;12.02;;;9.70;;
50350;SDS011;36250;48.740;22.174;2022-08-03T04:58:08;10.73;;;9.70;;
50350;SDS011;36250;48.740;22.174;2022-08-03T05:00:34;12.15;;;10.88;;
50350;SDS011;36250;48.740;22.174;2022-08-03T05:03:00;11.50;;;10.45;;
50350;SDS011;36250;48.740;22.174;2022-08-03T05:05:25;9.98;;;9.15;;
50350;SDS011;36250;48.740;22.174;2022-08-03T05:07:51;13.30;;;11.18;;
50350;SDS011;36250;48.740;22.174;2022-08-03T05:10:16;10.68;;;9.77;;
50350;SDS011;36250;48.740;22.174;2022-08-03T05:12:42;11.40;;;10.30;;
50350;SDS011;36250;48.740;22.174;2022-08-03T05:15:09;10.82;;;9.68;;
50350;SDS011;36250;48.740;22.174;2022-08-03T05:17:34;10.13;;;9.23;;
50350;SDS011;36250;48.740;22.174;2022-08-03T05:20:00;10.07;;;9.25;;
50350;SDS011;36250;48.740;22.174;2022-08-03T05:22:27;9.93;;;8.93;;
50350;SDS011;36250;48.740;22.174;2022-08-03T05:24:53;9.45;;;8.55;;
50350;SDS011;36250;48.740;22.174;2022-08-03T05:27:18;9.68;;;8.85;;
50350;SDS011;36250;48.740;22.174;2022-08-03T05:29:44;9.70;;;8.50;;
50350;SDS011;36250;48.740;22.174;2022-08-03T05:32:10;10.10;;;8.57;;
50350;SDS011;36250;48.740;22.174;2022-08-03T05:34:35;11.07;;;8.57;;
50350;SDS011;36250;48.740;22.174;2022-08-03T05:37:01;9.48;;;8.13;;
50350;SDS011;36250;48.740;22.174;2022-08-03T05:39:26;8.75;;;7.60;;
50350;SDS011;36250;48.740;22.174;2022-08-03T05:41:52;8.07;;;6.65;;
50350;SDS011;36250;48.740;22.174;2022-08-03T05:44:17;9.60;;;7.20;;
50350;SDS011;36250;48.740;22.174;2022-08-03T05:46:42;7.82;;;7.15;;
50350;SDS011;36250;48.740;22.174;2022-08-03T05:49:07;8.73;;;7.50;;
50350;SDS011;36250;48.740;22.174;2022-08-03T05:51:33;10.93;;;6.47;;
50350;SDS011;36250;48.740;22.174;2022-08-03T05:53:59;6.80;;;6.20;;
50350;SDS011;36250;48.740;22.174;2022-08-03T05:56:24;6.82;;;6.30;;
50350;SDS011;36250;48.740;22.174;2022-08-03T05:58:50;8.18;;;6.43;;
50350;SDS011;36250;48.740;22.174;2022-08-03T06:01:16;8.95;;;6.65;;
50350;SDS011;36250;48.740;22.174;2022-08-03T06:03:42;8.93;;;5.68;;
50350;SDS011;36250;48.740;22.174;2022-08-03T06:06:09;5.85;;;5.10;;
50350;SDS011;36250;48.740;22.174;2022-08-03T06:08:35;6.20;;;5.20;;
50350;SDS011;36250;48.740;22.174;2022-08-03T06:11:00;11.18;;;5.70;;
50350;SDS011;36250;48.740;22.174;2022-08-03T06:13:26;8.30;;;6.97;;
50350;SDS011;36250;48.740;22.174;2022-08-03T06:15:51;9.75;;;6.65;;
50350;SDS011;36250;48.740;22.174;2022-08-03T06:18:17;7.82;;;6.00;;
50350;SDS011;36250;48.740;22.174;2022-08-03T06:20:42;8.35;;;5.68;;
50350;SDS011;36250;48.740;22.174;2022-08-03T06:23:07;7.18;;;5.75;;
50350;SDS011;36250;48.740;22.174;2022-08-03T06:25:33;9.02;;;5.70;;
50350;SDS011;36250;48.740;22.174;2022-08-03T06:27:58;5.60;;;5.10;;
50350;SDS011;36250;48.740;22.174;2022-08-03T06:30:24;5.57;;;5.07;;
50350;SDS011;36250;48.740;22.174;2022-08-03T06:32:50;5.18;;;4.78;;
50350;SDS011;36250;48.740;22.174;2022-08-03T06:35:15;5.13;;;4.38;;
50350;SDS011;36250;48.740;22.174;2022-08-03T06:37:41;8.48;;;4.22;;
50350;SDS011;36250;48.740;22.174;2022-08-03T06:40:13;3.13;;;2.67;;
50350;SDS011;36250;48.740;22.174;2022-08-03T06:42:41;3.53;;;2.40;;
50350;SDS011;36250;48.740;22.174;2022-08-03T06:45:07;6.18;;;2.00;;
50350;SDS011;36250;48.740;22.174;2022-08-03T06:47:34;3.30;;;2.70;;
50350;SDS011;36250;48.740;22.174;2022-08-03T06:50:01;2.58;;;2.38;;
50350;SDS011;36250;48.740;22.174;2022-08-03T06:52:27;2.35;;;2.13;;
50350;SDS011;36250;48.740;22.174;2022-08-03T06:54:53;3.13;;;2.15;;
50350;SDS011;36250;48.740;22.174;2022-08-03T06:57:18;6.40;;;2.78;;
50350;SDS011;36250;48.740;22.174;2022-08-03T06:59:44;2.42;;;2.08;;
50350;SDS011;36250;48.740;22.174;2022-08-03T07:02:09;2.50;;;2.30;;
50350;SDS011;36250;48.740;22.174;2022-08-03T07:04:35;1.83;;;1.73;;
50350;SDS011;36250;48.740;22.174;2022-08-03T07:07:01;2.72;;;2.15;;
50350;SDS011;36250;48.740;22.174;2022-08-03T07:09:26;3.53;;;2.45;;
50350;SDS011;36250;48.740;22.174;2022-08-03T07:11:52;3.45;;;2.15;;
50350;SDS011;36250;48.740;22.174;2022-08-03T07:14:18;1.77;;;1.67;;
50350;SDS011;36250;48.740;22.174;2022-08-03T07:16:43;1.60;;;1.50;;
50350;SDS011;36250;48.740;22.174;2022-08-03T07:19:08;8.63;;;1.77;;
50350;SDS011;36250;48.740;22.174;2022-08-03T07:21:34;2.33;;;2.13;;
50350;SDS011;36250;48.740;22.174;2022-08-03T07:23:59;6.55;;;2.00;;
50350;SDS011;36250;48.740;22.174;2022-08-03T07:26:24;3.80;;;1.70;;
50350;SDS011;36250;48.740;22.174;2022-08-03T07:28:49;2.58;;;2.10;;
50350;SDS011;36250;48.740;22.174;2022-08-03T07:31:15;3.65;;;1.95;;
50350;SDS011;36250;48.740;22.174;2022-08-03T07:33:40;5.10;;;1.40;;
50350;SDS011;36250;48.740;22.174;2022-08-03T07:36:05;1.67;;;0.98;;
50350;SDS011;36250;48.740;22.174;2022-08-03T07:38:31;3.58;;;1.35;;
50350;SDS011;36250;48.740;22.174;2022-08-03T07:40:56;1.77;;;1.20;;
50350;SDS011;36250;48.740;22.174;2022-08-03T07:43:21;3.78;;;1.15;;
50350;SDS011;36250;48.740;22.174;2022-08-03T07:45:48;1.20;;;1.10;;
50350;SDS011;36250;48.740;22.174;2022-08-03T07:48:13;2.38;;;1.35;;
50350;SDS011;36250;48.740;22.174;2022-08-03T07:50:39;2.05;;;1.10;;
50350;SDS011;36250;48.740;22.174;2022-08-03T07:53:04;1.15;;;1.13;;
50350;SDS011;36250;48.740;22.174;2022-08-03T07:55:30;1.92;;;1.10;;
50350;SDS011;36250;48.740;22.174;2022-08-03T07:58:13;1.35;;;0.93;;
50350;SDS011;36250;48.740;22.174;2022-08-03T08:00:42;2.42;;;1.00;;
50350;SDS011;36250;48.740;22.174;2022-08-03T08:03:08;1.58;;;1.20;;
50350;SDS011;36250;48.740;22.174;2022-08-03T08:05:34;3.55;;;1.02;;
50350;SDS011;36250;48.740;22.174;2022-08-03T08:08:00;2.90;;;1.17;;
50350;SDS011;36250;48.740;22.174;2022-08-03T08:10:26;1.67;;;1.02;;
50350;SDS011;36250;48.740;22.174;2022-08-03T08:12:52;5.05;;;1.10;;
50350;SDS011;36250;48.740;22.174;2022-08-03T08:15:18;1.75;;;1.35;;
50350;SDS011;36250;48.740;22.174;2022-08-03T08:17:49;2.53;;;1.13;;
50350;SDS011;36250;48.740;22.174;2022-08-03T08:20:17;2.72;;;1.00;;
50350;SDS011;36250;48.740;22.174;2022-08-03T08:22:48;5.75;;;1.42;;
50350;SDS011;36250;48.740;22.174;2022-08-03T08:25:13;1.20;;;1.20;;
50350;SDS011;36250;48.740;22.174;2022-08-03T08:27:48;2.25;;;1.02;;
50350;SDS011;36250;48.740;22.174;2022-08-03T08:30:15;2.08;;;1.23;;
50350;SDS011;36250;48.740;22.174;2022-08-03T08:32:42;1.33;;;1.33;;
50350;SDS011;36250;48.740;22.174;2022-08-03T08:35:09;1.40;;;1.30;;
50350;SDS011;36250;48.740;22.174;2022-08-03T08:37:34;1.42;;;1.33;;
50350;SDS011;36250;48.740;22.174;2022-08-03T08:40:01;2.30;;;1.20;;
50350;SDS011;36250;48.740;22.174;2022-08-03T08:42:26;3.78;;;1.40;;
50350;SDS011;36250;48.740;22.174;2022-08-03T08:44:52;2.33;;;1.20;;
50350;SDS011;36250;48.740;22.174;2022-08-03T08:47:28;2.15;;;1.63;;
50350;SDS011;36250;48.740;22.174;2022-08-03T08:49:54;4.28;;;1.40;;
50350;SDS011;36250;48.740;22.174;2022-08-03T08:52:23;1.40;;;1.30;;
50350;SDS011;36250;48.740;22.174;2022-08-03T08:54:51;1.50;;;1.40;;
50350;SDS011;36250;48.740;22.174;2022-08-03T08:57:21;3.72;;;1.38;;
50350;SDS011;36250;48.740;22.174;2022-08-03T08:59:49;1.17;;;1.13;;
50350;SDS011;36250;48.740;22.174;2022-08-03T09:02:17;1.83;;;1.50;;
50350;SDS011;36250;48.740;22.174;2022-08-03T09:04:43;1.70;;;1.50;;
50350;SDS011;36250;48.740;22.174;2022-08-03T09:07:09;1.30;;;1.20;;
50350;SDS011;36250;48.740;22.174;2022-08-03T09:09:35;2.13;;;1.30;;
50350;SDS011;36250;48.740;22.174;2022-08-03T09:12:00;1.20;;;1.10;;
50350;SDS011;36250;48.740;22.174;2022-08-03T09:14:25;1.70;;;1.10;;
50350;SDS011;36250;48.740;22.174;2022-08-03T09:16:54;6.18;;;1.60;;
50350;SDS011;36250;48.740;22.174;2022-08-03T09:19:24;1.95;;;1.10;;
50350;SDS011;36250;48.740;22.174;2022-08-03T09:22:06;1.38;;;1.23;;
50350;SDS011;36250;48.740;22.174;2022-08-03T09:24:32;4.22;;;2.03;;
50350;SDS011;36250;48.740;22.174;2022-08-03T09:26:57;1.25;;;1.25;;
50350;SDS011;36250;48.740;22.174;2022-08-03T09:29:22;1.58;;;1.10;;
50350;SDS011;36250;48.740;22.174;2022-08-03T09:31:49;1.45;;;1.35;;
50350;SDS011;36250;48.740;22.174;2022-08-03T09:34:26;1.02;;;1.02;;
50350;SDS011;36250;48.740;22.174;2022-08-03T09:36:52;1.50;;;1.40;;
50350;SDS011;36250;48.740;22.174;2022-08-03T09:39:22;3.75;;;1.38;;
50350;SDS011;36250;48.740;22.174;2022-08-03T09:47:06;3.08;;;1.33;;
50350;SDS011;36250;48.740;22.174;2022-08-03T09:49:33;1.50;;;1.40;;
50350;SDS011;36250;48.740;22.174;2022-08-03T09:52:00;5.07;;;1.67;;
50350;SDS011;36250;48.740;22.174;2022-08-03T09:54:35;3.33;;;1.40;;
50350;SDS011;36250;48.740;22.174;2022-08-03T09:57:01;3.20;;;1.75;;
50350;SDS011;36250;48.740;22.174;2022-08-03T09:59:30;1.48;;;1.38;;
50350;SDS011;36250;48.740;22.174;2022-08-03T10:01:56;4.53;;;1.25;;
50350;SDS011;36250;48.740;22.174;2022-08-03T10:04:24;4.57;;;1.20;;
50350;SDS011;36250;48.740;22.174;2022-08-03T10:07:05;1.38;;;1.27;;
50350;SDS011;36250;48.740;22.174;2022-08-03T10:09:33;1.50;;;1.40;;
50350;SDS011;36250;48.740;22.174;2022-08-03T10:12:11;1.30;;;1.30;;
50350;SDS011;36250;48.740;22.174;2022-08-03T10:14:38;1.50;;;1.40;;
50350;SDS011;36250;48.740;22.174;2022-08-03T10:17:05;2.05;;;1.20;;
50350;SDS011;36250;48.740;22.174;2022-08-03T10:19:31;1.13;;;1.10;;
50350;SDS011;36250;48.740;22.174;2022-08-03T10:22:00;4.53;;;1.40;;
50350;SDS011;36250;48.740;22.174;2022-08-03T10:24:29;1.35;;;1.25;;
50350;SDS011;36250;48.740;22.174;2022-08-03T10:27:00;1.58;;;1.35;;
50350;SDS011;36250;48.740;22.174;2022-08-03T10:29:28;7.18;;;1.70;;
50350;SDS011;36250;48.740;22.174;2022-08-03T10:31:58;3.08;;;1.27;;
50350;SDS011;36250;48.740;22.174;2022-08-03T10:34:30;2.65;;;1.55;;
50350;SDS011;36250;48.740;22.174;2022-08-03T10:36:59;1.67;;;1.42;;
50350;SDS011;36250;48.740;22.174;2022-08-03T10:39:27;1.55;;;1.10;;
50350;SDS011;36250;48.740;22.174;2022-08-03T10:41:54;5.60;;;1.55;;
50350;SDS011;36250;48.740;22.174;2022-08-03T10:44:23;3.50;;;1.20;;
50350;SDS011;36250;48.740;22.174;2022-08-03T10:46:50;3.88;;;1.42;;
50350;SDS011;36250;48.740;22.174;2022-08-03T10:49:17;2.03;;;1.35;;
50350;SDS011;36250;48.740;22.174;2022-08-03T10:51:43;1.58;;;1.30;;
50350;SDS011;36250;48.740;22.174;2022-08-03T11:00:12;1.50;;;1.40;;
50350;SDS011;36250;48.740;22.174;2022-08-03T11:03:00;1.30;;;1.20;;
50350;SDS011;36250;48.740;22.174;2022-08-03T11:05:41;1.65;;;1.45;;
50350;SDS011;36250;48.740;22.174;2022-08-03T11:10:46;1.63;;;1.33;;
50350;SDS011;36250;48.740;22.174;2022-08-03T11:13:14;3.80;;;1.35;;
50350;SDS011;36250;48.740;22.174;2022-08-03T11:15:42;1.63;;;1.50;;
50350;SDS011;36250;48.740;22.174;2022-08-03T11:18:13;3.85;;;1.50;;
50350;SDS011;36250;48.740;22.174;2022-08-03T11:23:11;2.13;;;1.60;;
50350;SDS011;36250;48.740;22.174;2022-08-03T11:28:51;2.25;;;1.60;;
50350;SDS011;36250;48.740;22.174;2022-08-03T11:39:41;5.22;;;1.42;;
50350;SDS011;36250;48.740;22.174;2022-08-03T11:44:46;6.95;;;1.65;;
50350;SDS011;36250;48.740;22.174;2022-08-03T11:47:12;1.48;;;1.27;;
50350;SDS011;36250;48.740;22.174;2022-08-03T11:49:42;3.17;;;1.20;;
50350;SDS011;36250;48.740;22.174;2022-08-03T11:52:10;1.58;;;1.30;;
50350;SDS011;36250;48.740;22.174;2022-08-03T11:54:35;3.63;;;1.13;;
50350;SDS011;36250;48.740;22.174;2022-08-03T11:57:01;3.22;;;1.30;;
50350;SDS011;36250;48.740;22.174;2022-08-03T11:59:33;1.33;;;1.23;;
50350;SDS011;36250;48.740;22.174;2022-08-03T12:02:08;1.13;;;1.13;;
50350;SDS011;36250;48.740;22.174;2022-08-03T12:04:51;1.27;;;1.10;;
50350;SDS011;36250;48.740;22.174;2022-08-03T12:07:17;3.13;;;1.33;;
50350;SDS011;36250;48.740;22.174;2022-08-03T12:12:32;2.40;;;1.60;;
50350;SDS011;36250;48.740;22.174;2022-08-03T12:14:57;1.40;;;1.10;;
50350;SDS011;36250;48.740;22.174;2022-08-03T12:17:22;2.95;;;0.95;;
50350;SDS011;36250;48.740;22.174;2022-08-03T12:19:48;1.58;;;1.38;;
50350;SDS011;36250;48.740;22.174;2022-08-03T12:22:13;1.63;;;1.15;;
50350;SDS011;36250;48.740;22.174;2022-08-03T12:24:43;4.35;;;1.15;;
50350;SDS011;36250;48.740;22.174;2022-08-03T12:27:09;3.75;;;1.40;;
50350;SDS011;36250;48.740;22.174;2022-08-03T12:29:35;3.50;;;1.48;;
50350;SDS011;36250;48.740;22.174;2022-08-03T12:32:00;6.15;;;1.20;;
50350;SDS011;36250;48.740;22.174;2022-08-03T12:34:44;2.28;;;1.20;;
50350;SDS011;36250;48.740;22.174;2022-08-03T12:37:11;2.58;;;1.10;;
50350;SDS011;36250;48.740;22.174;2022-08-03T12:39:36;3.08;;;1.20;;
50350;SDS011;36250;48.740;22.174;2022-08-03T12:42:02;3.08;;;1.13;;
50350;SDS011;36250;48.740;22.174;2022-08-03T12:44:28;5.70;;;1.00;;
50350;SDS011;36250;48.740;22.174;2022-08-03T12:46:58;4.10;;;1.15;;
50350;SDS011;36250;48.740;22.174;2022-08-03T12:49:25;1.50;;;1.38;;
50350;SDS011;36250;48.740;22.174;2022-08-03T12:54:18;1.50;;;1.27;;
50350;SDS011;36250;48.740;22.174;2022-08-03T12:56:57;1.40;;;1.27;;
50350;SDS011;36250;48.740;22.174;2022-08-03T12:59:25;1.63;;;1.13;;
50350;SDS011;36250;48.740;22.174;2022-08-03T13:01:51;1.30;;;1.20;;
50350;SDS011;36250;48.740;22.174;2022-08-03T13:04:29;2.40;;;1.00;;
50350;SDS011;36250;48.740;22.174;2022-08-03T13:07:04;1.13;;;1.05;;
50350;SDS011;36250;48.740;22.174;2022-08-03T13:12:18;2.85;;;1.50;;
50350;SDS011;36250;48.740;22.174;2022-08-03T13:14:48;2.10;;;1.90;;
50350;SDS011;36250;48.740;22.174;2022-08-03T13:17:14;2.03;;;1.20;;
50350;SDS011;36250;48.740;22.174;2022-08-03T13:19:40;1.25;;;1.15;;
50350;SDS011;36250;48.740;22.174;2022-08-03T13:22:13;2.72;;;1.50;;
50350;SDS011;36250;48.740;22.174;2022-08-03T13:24:40;1.92;;;1.30;;
50350;SDS011;36250;48.740;22.174;2022-08-03T13:27:07;1.48;;;1.38;;
50350;SDS011;36250;48.740;22.174;2022-08-03T13:29:33;1.30;;;1.30;;
50350;SDS011;36250;48.740;22.174;2022-08-03T13:31:59;2.40;;;1.60;;
50350;SDS011;36250;48.740;22.174;2022-08-03T13:34:25;1.50;;;1.27;;
50350;SDS011;36250;48.740;22.174;2022-08-03T13:36:50;1.53;;;1.43;;
50350;SDS011;36250;48.740;22.174;2022-08-03T13:39:16;1.40;;;1.25;;
50350;SDS011;36250;48.740;22.174;2022-08-03T13:41:43;1.75;;;1.30;;
50350;SDS011;36250;48.740;22.174;2022-08-03T13:44:09;2.42;;;1.25;;
50350;SDS011;36250;48.740;22.174;2022-08-03T13:46:35;2.20;;;1.45;;
50350;SDS011;36250;48.740;22.174;2022-08-03T13:49:00;1.52;;;1.42;;
50350;SDS011;36250;48.740;22.174;2022-08-03T13:51:25;3.30;;;1.30;;
50350;SDS011;36250;48.740;22.174;2022-08-03T13:53:51;4.47;;;1.70;;
50350;SDS011;36250;48.740;22.174;2022-08-03T13:56:16;1.27;;;1.20;;
50350;SDS011;36250;48.740;22.174;2022-08-03T13:58:42;4.22;;;1.30;;
50350;SDS011;36250;48.740;22.174;2022-08-03T14:01:07;3.17;;;1.33;;
50350;SDS011;36250;48.740;22.174;2022-08-03T14:03:32;4.07;;;1.10;;
50350;SDS011;36250;48.740;22.174;2022-08-03T14:05:58;2.70;;;1.60;;
50350;SDS011;36250;48.740;22.174;2022-08-03T14:08:23;3.67;;;1.47;;
50350;SDS011;36250;48.740;22.174;2022-08-03T14:10:48;1.60;;;1.50;;
50350;SDS011;36250;48.740;22.174;2022-08-03T14:13:14;6.03;;;1.55;;
50350;SDS011;36250;48.740;22.174;2022-08-03T14:15:40;4.70;;;1.27;;
50350;SDS011;36250;48.740;22.174;2022-08-03T14:18:06;1.60;;;1.50;;
50350;SDS011;36250;48.740;22.174;2022-08-03T14:20:32;1.60;;;1.50;;
50350;SDS011;36250;48.740;22.174;2022-08-03T14:22:57;1.92;;;1.38;;
50350;SDS011;36250;48.740;22.174;2022-08-03T14:25:23;2.97;;;1.20;;
50350;SDS011;36250;48.740;22.174;2022-08-03T14:27:48;2.28;;;1.55;;
50350;SDS011;36250;48.740;22.174;2022-08-03T14:30:14;2.42;;;1.40;;
50350;SDS011;36250;48.740;22.174;2022-08-03T14:32:39;1.05;;;1.02;;
50350;SDS011;36250;48.740;22.174;2022-08-03T14:35:05;2.47;;;1.48;;
50350;SDS011;36250;48.740;22.174;2022-08-03T14:37:31;0.95;;;0.95;;
50350;SDS011;36250;48.740;22.174;2022-08-03T14:39:57;3.42;;;2.13;;
50350;SDS011;36250;48.740;22.174;2022-08-03T14:42:23;1.63;;;1.38;;
50350;SDS011;36250;48.740;22.174;2022-08-03T14:44:48;1.13;;;1.13;;
50350;SDS011;36250;48.740;22.174;2022-08-03T14:47:13;3.70;;;1.43;;
50350;SDS011;36250;48.740;22.174;2022-08-03T14:49:39;7.57;;;1.35;;
50350;SDS011;36250;48.740;22.174;2022-08-03T14:52:04;2.75;;;1.30;;
50350;SDS011;36250;48.740;22.174;2022-08-03T14:54:30;1.50;;;1.33;;
50350;SDS011;36250;48.740;22.174;2022-08-03T14:56:55;1.30;;;1.17;;
50350;SDS011;36250;48.740;22.174;2022-08-03T14:59:21;1.40;;;1.30;;
50350;SDS011;36250;48.740;22.174;2022-08-03T15:01:46;2.10;;;1.42;;
50350;SDS011;36250;48.740;22.174;2022-08-03T15:04:12;1.40;;;1.30;;
50350;SDS011;36250;48.740;22.174;2022-08-03T15:06:37;1.65;;;1.48;;
50350;SDS011;36250;48.740;22.174;2022-08-03T15:09:02;1.50;;;1.40;;
50350;SDS011;36250;48.740;22.174;2022-08-03T15:11:28;1.73;;;1.48;;
50350;SDS011;36250;48.740;22.174;2022-08-03T15:13:53;2.35;;;1.60;;
50350;SDS011;36250;48.740;22.174;2022-08-03T15:16:18;1.20;;;1.20;;
50350;SDS011;36250;48.740;22.174;2022-08-03T15:18:44;2.78;;;1.30;;
50350;SDS011;36250;48.740;22.174;2022-08-03T15:21:09;1.47;;;1.20;;
50350;SDS011;36250;48.740;22.174;2022-08-03T15:23:34;6.23;;;1.37;;
50350;SDS011;36250;48.740;22.174;2022-08-03T15:26:00;4.20;;;1.50;;
50350;SDS011;36250;48.740;22.174;2022-08-03T15:28:25;1.88;;;1.50;;